LEGE/GRO METAR and TAF weather

Enter ICAO airport designator
Station Type Date Time Source
LEGE METAR 2019/06/17 14:30 UTC NOAA

LEGE 171430Z 19012KT 150V230 9999 FEW030 29/09 Q1015


Station Type Date Time Source
LEGE Decoded METAR 2019/06/17 14:30 UTC NOAA

Gerona / Costa Brava, Spain (LEGE) 41-54N 002-46E 129M
Jun 17, 2019 - 10:30 AM EDT / 2019.06.17 1430 UTC
Wind: from the S (190 degrees) at 14 MPH (12 KT) (direction variable):0
Visibility: greater than 7 mile(s):0
Sky conditions: mostly clear
Temperature: 84 F (29 C)
Dew Point: 48 F (9 C)
Relative Humidity: 28%
Pressure (altimeter): 29.97 in. Hg (1015 hPa)
ob: LEGE 171430Z 19012KT 150V230 9999 FEW030 29/09 Q1015
cycle: 14

Station Type Date Time Source
LEGE TAF 2019/06/17 12:27 UTC NOAA

TAF LEGE 171100Z 1712/1812 18010KT 9999 FEW030 TX32/1713Z TN17/1806Z
BECMG 1719/1721 VRB03KT
BECMG 1810/1812 19017KT

Example: see airport list